sensor_id;sensor_type;location;lat;lon;timestamp;temperature;humidity
19734;DHT22;10018;51.230;7.860;2023-05-16T00:02:03;12.50;99.90
19734;DHT22;10018;51.230;7.860;2023-05-16T00:04:30;12.40;99.90
19734;DHT22;10018;51.230;7.860;2023-05-16T00:06:57;12.40;99.90
19734;DHT22;10018;51.230;7.860;2023-05-16T00:09:22;12.40;99.90
19734;DHT22;10018;51.230;7.860;2023-05-16T00:11:48;12.40;99.90
19734;DHT22;10018;51.230;7.860;2023-05-16T00:14:14;12.40;99.90
19734;DHT22;10018;51.230;7.860;2023-05-16T00:16:42;12.40;99.90
19734;DHT22;10018;51.230;7.860;2023-05-16T00:19:08;12.40;99.90
19734;DHT22;10018;51.230;7.860;2023-05-16T00:21:34;12.30;99.90
19734;DHT22;10018;51.230;7.860;2023-05-16T00:23:59;12.20;99.90
19734;DHT22;10018;51.230;7.860;2023-05-16T00:26:25;12.30;99.90
19734;DHT22;10018;51.230;7.860;2023-05-16T00:28:51;12.30;99.90
19734;DHT22;10018;51.230;7.860;2023-05-16T00:31:17;12.30;99.90
19734;DHT22;10018;51.230;7.860;2023-05-16T00:33:42;12.20;99.90
19734;DHT22;10018;51.230;7.860;2023-05-16T00:36:08;12.10;99.90
19734;DHT22;10018;51.230;7.860;2023-05-16T00:38:33;12.00;99.90
19734;DHT22;10018;51.230;7.860;2023-05-16T00:40:59;12.00;99.90
19734;DHT22;10018;51.230;7.860;2023-05-16T00:43:25;12.00;99.90
19734;DHT22;10018;51.230;7.860;2023-05-16T00:45:50;12.00;99.90
19734;DHT22;10018;51.230;7.860;2023-05-16T00:48:16;12.00;99.90
19734;DHT22;10018;51.230;7.860;2023-05-16T00:50:42;11.90;99.90
19734;DHT22;10018;51.230;7.860;2023-05-16T00:53:08;11.80;99.90
19734;DHT22;10018;51.230;7.860;2023-05-16T00:55:33;11.60;99.90
19734;DHT22;10018;51.230;7.860;2023-05-16T00:58:00;11.40;99.90
19734;DHT22;10018;51.230;7.860;2023-05-16T01:00:26;11.20;99.90
19734;DHT22;10018;51.230;7.860;2023-05-16T01:02:51;11.10;99.90
19734;DHT22;10018;51.230;7.860;2023-05-16T01:05:20;11.00;99.90
19734;DHT22;10018;51.230;7.860;2023-05-16T01:07:46;10.90;99.90
19734;DHT22;10018;51.230;7.860;2023-05-16T01:10:11;10.80;99.90
19734;DHT22;10018;51.230;7.860;2023-05-16T01:13:06;10.70;99.90
19734;DHT22;10018;51.230;7.860;2023-05-16T01:15:43;10.60;99.90
19734;DHT22;10018;51.230;7.860;2023-05-16T01:18:17;10.60;99.90
19734;DHT22;10018;51.230;7.860;2023-05-16T01:20:55;10.60;99.90
19734;DHT22;10018;51.230;7.860;2023-05-16T01:23:46;10.60;99.90
19734;DHT22;10018;51.230;7.860;2023-05-16T01:26:26;10.50;99.90
19734;DHT22;10018;51.230;7.860;2023-05-16T01:28:52;10.50;99.90
19734;DHT22;10018;51.230;7.860;2023-05-16T01:31:19;10.50;99.90
19734;DHT22;10018;51.230;7.860;2023-05-16T01:33:45;10.50;99.90
19734;DHT22;10018;51.230;7.860;2023-05-16T01:36:39;10.50;99.90
19734;DHT22;10018;51.230;7.860;2023-05-16T01:39:18;10.50;99.90
19734;DHT22;10018;51.230;7.860;2023-05-16T01:42:08;10.40;99.90
19734;DHT22;10018;51.230;7.860;2023-05-16T01:44:44;10.40;99.90
19734;DHT22;10018;51.230;7.860;2023-05-16T01:47:12;10.40;99.90
19734;DHT22;10018;51.230;7.860;2023-05-16T01:49:45;10.40;99.90
19734;DHT22;10018;51.230;7.860;2023-05-16T01:52:27;10.50;99.90
19734;DHT22;10018;51.230;7.860;2023-05-16T01:54:57;10.50;99.90
19734;DHT22;10018;51.230;7.860;2023-05-16T01:57:25;10.40;99.90
19734;DHT22;10018;51.230;7.860;2023-05-16T01:59:51;10.40;99.90
19734;DHT22;10018;51.230;7.860;2023-05-16T02:02:17;10.40;99.90
19734;DHT22;10018;51.230;7.860;2023-05-16T02:04:43;10.40;99.90
19734;DHT22;10018;51.230;7.860;2023-05-16T02:07:09;10.30;99.90
19734;DHT22;10018;51.230;7.860;2023-05-16T02:09:35;10.40;99.90
19734;DHT22;10018;51.230;7.860;2023-05-16T02:12:00;10.30;99.90
19734;DHT22;10018;51.230;7.860;2023-05-16T02:14:26;10.20;99.90
19734;DHT22;10018;51.230;7.860;2023-05-16T02:16:52;10.30;99.90
19734;DHT22;10018;51.230;7.860;2023-05-16T02:19:17;10.30;99.90
19734;DHT22;10018;51.230;7.860;2023-05-16T02:21:43;10.30;99.90
19734;DHT22;10018;51.230;7.860;2023-05-16T02:24:09;10.30;99.90
19734;DHT22;10018;51.230;7.860;2023-05-16T02:26:34;10.20;99.90
19734;DHT22;10018;51.230;7.860;2023-05-16T02:29:02;10.30;99.90
19734;DHT22;10018;51.230;7.860;2023-05-16T02:31:32;10.30;99.90
19734;DHT22;10018;51.230;7.860;2023-05-16T02:33:59;10.20;99.90
19734;DHT22;10018;51.230;7.860;2023-05-16T02:36:25;10.20;99.90
19734;DHT22;10018;51.230;7.860;2023-05-16T02:38:50;10.20;99.90
19734;DHT22;10018;51.230;7.860;2023-05-16T02:43:43;10.10;99.90
19734;DHT22;10018;51.230;7.860;2023-05-16T02:46:30;10.20;99.90
19734;DHT22;10018;51.230;7.860;2023-05-16T02:48:58;10.10;99.90
19734;DHT22;10018;51.230;7.860;2023-05-16T02:51:26;10.10;99.90
19734;DHT22;10018;51.230;7.860;2023-05-16T02:53:53;10.10;99.90
19734;DHT22;10018;51.230;7.860;2023-05-16T02:56:22;10.00;99.90
19734;DHT22;10018;51.230;7.860;2023-05-16T02:58:48;10.00;99.90
19734;DHT22;10018;51.230;7.860;2023-05-16T03:01:15;10.00;99.90
19734;DHT22;10018;51.230;7.860;2023-05-16T03:03:41;10.00;99.90
19734;DHT22;10018;51.230;7.860;2023-05-16T03:06:07;10.00;99.90
19734;DHT22;10018;51.230;7.860;2023-05-16T03:08:33;9.90;99.90
19734;DHT22;10018;51.230;7.860;2023-05-16T03:10:59;9.80;99.90
19734;DHT22;10018;51.230;7.860;2023-05-16T03:13:25;9.80;99.90
19734;DHT22;10018;51.230;7.860;2023-05-16T03:15:51;9.80;99.90
19734;DHT22;10018;51.230;7.860;2023-05-16T03:18:17;9.80;99.90
19734;DHT22;10018;51.230;7.860;2023-05-16T03:20:43;9.70;99.90
19734;DHT22;10018;51.230;7.860;2023-05-16T03:23:08;9.70;99.90
19734;DHT22;10018;51.230;7.860;2023-05-16T03:25:34;9.70;99.90
19734;DHT22;10018;51.230;7.860;2023-05-16T03:28:01;9.60;99.90
19734;DHT22;10018;51.230;7.860;2023-05-16T03:30:26;9.50;99.90
19734;DHT22;10018;51.230;7.860;2023-05-16T03:32:52;9.40;99.90
19734;DHT22;10018;51.230;7.860;2023-05-16T03:35:18;9.40;99.90
19734;DHT22;10018;51.230;7.860;2023-05-16T03:37:43;9.30;99.90
19734;DHT22;10018;51.230;7.860;2023-05-16T03:40:09;9.20;99.90
19734;DHT22;10018;51.230;7.860;2023-05-16T03:42:35;9.20;99.90
19734;DHT22;10018;51.230;7.860;2023-05-16T03:45:06;9.20;99.90
19734;DHT22;10018;51.230;7.860;2023-05-16T03:47:34;9.10;99.90
19734;DHT22;10018;51.230;7.860;2023-05-16T03:50:00;9.20;99.90
19734;DHT22;10018;51.230;7.860;2023-05-16T03:52:26;9.20;99.90
19734;DHT22;10018;51.230;7.860;2023-05-16T03:54:51;9.10;99.90
19734;DHT22;10018;51.230;7.860;2023-05-16T03:57:17;9.10;99.90
19734;DHT22;10018;51.230;7.860;2023-05-16T03:59:42;9.10;99.90
19734;DHT22;10018;51.230;7.860;2023-05-16T04:02:08;9.00;99.90
19734;DHT22;10018;51.230;7.860;2023-05-16T04:04:34;9.00;99.90
19734;DHT22;10018;51.230;7.860;2023-05-16T04:07:01;8.90;99.90
19734;DHT22;10018;51.230;7.860;2023-05-16T04:09:26;8.90;99.90
19734;DHT22;10018;51.230;7.860;2023-05-16T04:11:52;8.90;99.90
19734;DHT22;10018;51.230;7.860;2023-05-16T04:14:20;8.90;99.90
19734;DHT22;10018;51.230;7.860;2023-05-16T04:16:46;8.90;99.90
19734;DHT22;10018;51.230;7.860;2023-05-16T04:19:11;8.80;99.90
19734;DHT22;10018;51.230;7.860;2023-05-16T04:21:37;8.70;99.90
19734;DHT22;10018;51.230;7.860;2023-05-16T04:24:05;8.80;99.90
19734;DHT22;10018;51.230;7.860;2023-05-16T04:26:31;8.80;99.90
19734;DHT22;10018;51.230;7.860;2023-05-16T04:28:56;8.80;99.90
19734;DHT22;10018;51.230;7.860;2023-05-16T04:31:24;8.80;99.90
19734;DHT22;10018;51.230;7.860;2023-05-16T04:33:50;8.80;99.90
19734;DHT22;10018;51.230;7.860;2023-05-16T04:36:15;8.80;99.90
19734;DHT22;10018;51.230;7.860;2023-05-16T04:38:41;8.90;99.90
19734;DHT22;10018;51.230;7.860;2023-05-16T04:41:07;8.90;99.90
19734;DHT22;10018;51.230;7.860;2023-05-16T04:43:32;8.80;99.90
19734;DHT22;10018;51.230;7.860;2023-05-16T04:46:00;8.80;99.90
19734;DHT22;10018;51.230;7.860;2023-05-16T04:48:26;8.80;99.90
19734;DHT22;10018;51.230;7.860;2023-05-16T04:50:54;8.70;99.90
19734;DHT22;10018;51.230;7.860;2023-05-16T04:53:20;8.70;99.90
19734;DHT22;10018;51.230;7.860;2023-05-16T04:55:45;8.60;99.90
19734;DHT22;10018;51.230;7.860;2023-05-16T04:58:11;8.60;99.90
19734;DHT22;10018;51.230;7.860;2023-05-16T05:00:38;8.70;99.90
19734;DHT22;10018;51.230;7.860;2023-05-16T05:03:05;8.60;99.90
19734;DHT22;10018;51.230;7.860;2023-05-16T05:05:31;8.70;99.90
19734;DHT22;10018;51.230;7.860;2023-05-16T05:08:02;8.70;99.90
19734;DHT22;10018;51.230;7.860;2023-05-16T05:10:27;8.70;99.90
19734;DHT22;10018;51.230;7.860;2023-05-16T05:12:53;8.70;99.90
19734;DHT22;10018;51.230;7.860;2023-05-16T05:15:19;8.70;99.90
19734;DHT22;10018;51.230;7.860;2023-05-16T05:17:44;8.60;99.90
19734;DHT22;10018;51.230;7.860;2023-05-16T05:20:10;8.60;99.90
19734;DHT22;10018;51.230;7.860;2023-05-16T05:22:36;8.60;99.90
19734;DHT22;10018;51.230;7.860;2023-05-16T05:25:02;8.50;99.90
19734;DHT22;10018;51.230;7.860;2023-05-16T05:27:28;8.50;99.90
19734;DHT22;10018;51.230;7.860;2023-05-16T05:29:53;8.40;99.90
19734;DHT22;10018;51.230;7.860;2023-05-16T05:32:19;8.40;99.90
19734;DHT22;10018;51.230;7.860;2023-05-16T05:34:44;8.50;99.90
19734;DHT22;10018;51.230;7.860;2023-05-16T05:37:10;8.50;99.90
19734;DHT22;10018;51.230;7.860;2023-05-16T05:39:35;8.40;99.90
19734;DHT22;10018;51.230;7.860;2023-05-16T05:42:01;8.20;99.90
19734;DHT22;10018;51.230;7.860;2023-05-16T05:44:29;8.20;99.90
19734;DHT22;10018;51.230;7.860;2023-05-16T05:46:55;8.10;99.90
19734;DHT22;10018;51.230;7.860;2023-05-16T05:49:22;8.10;99.90
19734;DHT22;10018;51.230;7.860;2023-05-16T05:51:51;8.00;99.90
19734;DHT22;10018;51.230;7.860;2023-05-16T05:54:18;8.00;99.90
19734;DHT22;10018;51.230;7.860;2023-05-16T05:56:46;8.00;99.90
19734;DHT22;10018;51.230;7.860;2023-05-16T05:59:15;8.00;99.90
19734;DHT22;10018;51.230;7.860;2023-05-16T06:01:43;8.10;99.90
19734;DHT22;10018;51.230;7.860;2023-05-16T06:04:09;8.20;99.90
19734;DHT22;10018;51.230;7.860;2023-05-16T06:06:36;8.20;99.90
19734;DHT22;10018;51.230;7.860;2023-05-16T06:09:02;8.30;99.90
19734;DHT22;10018;51.230;7.860;2023-05-16T06:11:27;8.40;99.90
19734;DHT22;10018;51.230;7.860;2023-05-16T06:13:53;8.40;99.90
19734;DHT22;10018;51.230;7.860;2023-05-16T06:16:23;8.50;99.90
19734;DHT22;10018;51.230;7.860;2023-05-16T06:18:51;8.60;99.90
19734;DHT22;10018;51.230;7.860;2023-05-16T06:21:19;8.60;99.90
19734;DHT22;10018;51.230;7.860;2023-05-16T06:23:47;8.60;99.90
19734;DHT22;10018;51.230;7.860;2023-05-16T06:26:13;8.60;99.90
19734;DHT22;10018;51.230;7.860;2023-05-16T06:28:39;8.70;99.90
19734;DHT22;10018;51.230;7.860;2023-05-16T06:31:05;8.70;99.90
19734;DHT22;10018;51.230;7.860;2023-05-16T06:33:30;8.80;99.90
19734;DHT22;10018;51.230;7.860;2023-05-16T06:35:56;8.80;99.90
19734;DHT22;10018;51.230;7.860;2023-05-16T06:38:21;8.70;99.90
19734;DHT22;10018;51.230;7.860;2023-05-16T06:40:47;8.70;99.90
19734;DHT22;10018;51.230;7.860;2023-05-16T06:43:13;8.60;99.90
19734;DHT22;10018;51.230;7.860;2023-05-16T06:45:43;8.60;99.90
19734;DHT22;10018;51.230;7.860;2023-05-16T06:48:16;8.60;99.90
19734;DHT22;10018;51.230;7.860;2023-05-16T06:50:42;8.70;99.90
19734;DHT22;10018;51.230;7.860;2023-05-16T06:53:08;8.80;99.90
19734;DHT22;10018;51.230;7.860;2023-05-16T06:55:33;8.80;99.90
19734;DHT22;10018;51.230;7.860;2023-05-16T06:57:59;8.80;99.90
19734;DHT22;10018;51.230;7.860;2023-05-16T07:00:26;8.80;99.90
19734;DHT22;10018;51.230;7.860;2023-05-16T07:02:52;8.90;99.90
19734;DHT22;10018;51.230;7.860;2023-05-16T07:05:18;8.90;99.90
19734;DHT22;10018;51.230;7.860;2023-05-16T07:07:43;8.90;99.90
19734;DHT22;10018;51.230;7.860;2023-05-16T07:10:09;8.90;99.90
19734;DHT22;10018;51.230;7.860;2023-05-16T07:12:35;9.00;99.90
19734;DHT22;10018;51.230;7.860;2023-05-16T07:15:04;8.90;99.90
19734;DHT22;10018;51.230;7.860;2023-05-16T07:17:30;8.90;99.90
19734;DHT22;10018;51.230;7.860;2023-05-16T07:19:56;8.90;99.90
19734;DHT22;10018;51.230;7.860;2023-05-16T07:22:21;9.00;99.90
19734;DHT22;10018;51.230;7.860;2023-05-16T07:24:47;9.00;99.90
19734;DHT22;10018;51.230;7.860;2023-05-16T07:27:12;9.00;99.90
19734;DHT22;10018;51.230;7.860;2023-05-16T07:29:40;9.10;99.90
19734;DHT22;10018;51.230;7.860;2023-05-16T07:32:09;9.10;99.90
19734;DHT22;10018;51.230;7.860;2023-05-16T07:34:34;9.10;99.90
19734;DHT22;10018;51.230;7.860;2023-05-16T07:37:03;9.20;99.90
19734;DHT22;10018;51.230;7.860;2023-05-16T07:39:29;9.30;99.90
19734;DHT22;10018;51.230;7.860;2023-05-16T07:41:55;9.20;99.90
19734;DHT22;10018;51.230;7.860;2023-05-16T07:44:21;9.50;99.90
19734;DHT22;10018;51.230;7.860;2023-05-16T07:46:46;9.80;99.90
19734;DHT22;10018;51.230;7.860;2023-05-16T07:49:14;9.80;99.90
19734;DHT22;10018;51.230;7.860;2023-05-16T07:51:40;10.00;99.90
19734;DHT22;10018;51.230;7.860;2023-05-16T07:54:05;10.00;99.90
19734;DHT22;10018;51.230;7.860;2023-05-16T07:56:31;10.20;99.90
19734;DHT22;10018;51.230;7.860;2023-05-16T07:58:57;10.20;99.90
19734;DHT22;10018;51.230;7.860;2023-05-16T08:01:23;10.30;99.90
19734;DHT22;10018;51.230;7.860;2023-05-16T08:03:49;10.40;99.90
19734;DHT22;10018;51.230;7.860;2023-05-16T08:06:14;10.60;99.90
19734;DHT22;10018;51.230;7.860;2023-05-16T08:08:40;10.60;99.90
19734;DHT22;10018;51.230;7.860;2023-05-16T08:11:06;10.90;99.90
19734;DHT22;10018;51.230;7.860;2023-05-16T08:13:31;11.20;99.90
19734;DHT22;10018;51.230;7.860;2023-05-16T08:15:57;10.90;99.90
19734;DHT22;10018;51.230;7.860;2023-05-16T08:18:22;10.40;99.90
19734;DHT22;10018;51.230;7.860;2023-05-16T08:20:48;10.10;99.90
19734;DHT22;10018;51.230;7.860;2023-05-16T08:23:14;10.10;99.90
19734;DHT22;10018;51.230;7.860;2023-05-16T08:25:39;10.30;99.90
19734;DHT22;10018;51.230;7.860;2023-05-16T08:28:05;10.50;99.90
19734;DHT22;10018;51.230;7.860;2023-05-16T08:30:32;10.80;99.90
19734;DHT22;10018;51.230;7.860;2023-05-16T08:32:57;11.10;99.90
19734;DHT22;10018;51.230;7.860;2023-05-16T08:35:23;11.30;99.90
19734;DHT22;10018;51.230;7.860;2023-05-16T08:37:48;11.50;99.90
19734;DHT22;10018;51.230;7.860;2023-05-16T08:40:14;11.60;99.90
19734;DHT22;10018;51.230;7.860;2023-05-16T08:42:40;11.50;99.90
19734;DHT22;10018;51.230;7.860;2023-05-16T08:45:07;11.20;99.90
19734;DHT22;10018;51.230;7.860;2023-05-16T08:47:33;10.90;99.90
19734;DHT22;10018;51.230;7.860;2023-05-16T08:50:02;10.70;99.90
19734;DHT22;10018;51.230;7.860;2023-05-16T08:52:30;10.70;99.90
19734;DHT22;10018;51.230;7.860;2023-05-16T08:55:02;11.00;99.90
19734;DHT22;10018;51.230;7.860;2023-05-16T08:57:30;11.30;99.90
19734;DHT22;10018;51.230;7.860;2023-05-16T08:59:56;11.20;99.90
19734;DHT22;10018;51.230;7.860;2023-05-16T09:02:23;10.90;99.90
19734;DHT22;10018;51.230;7.860;2023-05-16T09:04:49;10.90;99.90
19734;DHT22;10018;51.230;7.860;2023-05-16T09:07:14;11.00;99.90
19734;DHT22;10018;51.230;7.860;2023-05-16T09:09:41;11.40;99.90
19734;DHT22;10018;51.230;7.860;2023-05-16T09:12:07;11.60;99.90
19734;DHT22;10018;51.230;7.860;2023-05-16T09:14:33;11.80;99.90
19734;DHT22;10018;51.230;7.860;2023-05-16T09:17:07;12.00;99.90
19734;DHT22;10018;51.230;7.860;2023-05-16T09:19:40;12.20;99.90
19734;DHT22;10018;51.230;7.860;2023-05-16T09:22:11;12.60;99.90
19734;DHT22;10018;51.230;7.860;2023-05-16T09:24:42;12.80;99.90
19734;DHT22;10018;51.230;7.860;2023-05-16T09:27:12;12.70;99.90
19734;DHT22;10018;51.230;7.860;2023-05-16T09:29:42;12.60;99.90
19734;DHT22;10018;51.230;7.860;2023-05-16T09:32:17;12.30;99.90
19734;DHT22;10018;51.230;7.860;2023-05-16T09:34:43;12.10;99.90
19734;DHT22;10018;51.230;7.860;2023-05-16T09:37:17;11.90;99.90
19734;DHT22;10018;51.230;7.860;2023-05-16T09:39:51;11.70;99.90
19734;DHT22;10018;51.230;7.860;2023-05-16T09:42:19;11.50;99.90
19734;DHT22;10018;51.230;7.860;2023-05-16T09:44:49;11.40;99.90
19734;DHT22;10018;51.230;7.860;2023-05-16T09:47:19;11.50;99.90
19734;DHT22;10018;51.230;7.860;2023-05-16T09:49:45;11.70;99.90
19734;DHT22;10018;51.230;7.860;2023-05-16T09:52:12;12.10;99.90
19734;DHT22;10018;51.230;7.860;2023-05-16T09:54:40;12.60;99.90
19734;DHT22;10018;51.230;7.860;2023-05-16T09:57:06;12.80;99.90
19734;DHT22;10018;51.230;7.860;2023-05-16T09:59:38;12.60;99.90
19734;DHT22;10018;51.230;7.860;2023-05-16T10:02:05;12.70;99.90
19734;DHT22;10018;51.230;7.860;2023-05-16T10:04:33;12.90;99.90
19734;DHT22;10018;51.230;7.860;2023-05-16T10:07:02;13.10;99.90
19734;DHT22;10018;51.230;7.860;2023-05-16T10:09:33;13.20;99.90
19734;DHT22;10018;51.230;7.860;2023-05-16T10:12:02;13.20;99.90
19734;DHT22;10018;51.230;7.860;2023-05-16T10:14:34;13.20;99.90
19734;DHT22;10018;51.230;7.860;2023-05-16T10:17:03;12.90;99.90
19734;DHT22;10018;51.230;7.860;2023-05-16T10:19:39;12.80;99.90
19734;DHT22;10018;51.230;7.860;2023-05-16T10:22:06;12.80;99.90
19734;DHT22;10018;51.230;7.860;2023-05-16T10:27:03;12.50;99.90
19734;DHT22;10018;51.230;7.860;2023-05-16T10:29:29;12.60;99.90
19734;DHT22;10018;51.230;7.860;2023-05-16T10:31:58;12.60;99.90
19734;DHT22;10018;51.230;7.860;2023-05-16T10:34:24;12.70;99.90
19734;DHT22;10018;51.230;7.860;2023-05-16T10:36:53;12.60;99.90
19734;DHT22;10018;51.230;7.860;2023-05-16T10:39:19;12.70;99.90
19734;DHT22;10018;51.230;7.860;2023-05-16T10:41:45;12.30;99.90
19734;DHT22;10018;51.230;7.860;2023-05-16T10:44:13;12.50;99.90
19734;DHT22;10018;51.230;7.860;2023-05-16T10:46:40;12.60;99.90
19734;DHT22;10018;51.230;7.860;2023-05-16T10:49:23;12.80;99.90
19734;DHT22;10018;51.230;7.860;2023-05-16T10:52:03;12.90;99.90
19734;DHT22;10018;51.230;7.860;2023-05-16T10:54:43;13.10;99.90
19734;DHT22;10018;51.230;7.860;2023-05-16T10:57:14;13.50;99.90
19734;DHT22;10018;51.230;7.860;2023-05-16T10:59:46;13.50;99.90
19734;DHT22;10018;51.230;7.860;2023-05-16T11:02:33;13.20;99.90
19734;DHT22;10018;51.230;7.860;2023-05-16T11:05:05;13.30;99.90
19734;DHT22;10018;51.230;7.860;2023-05-16T11:07:35;13.20;99.90
19734;DHT22;10018;51.230;7.860;2023-05-16T11:12:37;12.80;99.90
19734;DHT22;10018;51.230;7.860;2023-05-16T11:17:42;13.20;99.90
19734;DHT22;10018;51.230;7.860;2023-05-16T11:20:24;13.30;99.90
19734;DHT22;10018;51.230;7.860;2023-05-16T11:22:50;13.30;99.90
19734;DHT22;10018;51.230;7.860;2023-05-16T11:25:36;13.60;99.90
19734;DHT22;10018;51.230;7.860;2023-05-16T11:28:05;14.00;99.90
19734;DHT22;10018;51.230;7.860;2023-05-16T11:30:32;14.20;99.90
19734;DHT22;10018;51.230;7.860;2023-05-16T11:32:58;14.20;99.90
19734;DHT22;10018;51.230;7.860;2023-05-16T11:35:24;14.00;99.90
19734;DHT22;10018;51.230;7.860;2023-05-16T11:37:50;14.10;99.90
19734;DHT22;10018;51.230;7.860;2023-05-16T11:40:18;14.10;99.90
19734;DHT22;10018;51.230;7.860;2023-05-16T11:42:47;13.90;99.90
19734;DHT22;10018;51.230;7.860;2023-05-16T11:45:17;13.90;99.90
19734;DHT22;10018;51.230;7.860;2023-05-16T11:47:45;13.60;99.90
19734;DHT22;10018;51.230;7.860;2023-05-16T11:50:22;13.50;99.90
19734;DHT22;10018;51.230;7.860;2023-05-16T11:52:52;13.40;99.90
19734;DHT22;10018;51.230;7.860;2023-05-16T11:55:19;13.70;99.90
19734;DHT22;10018;51.230;7.860;2023-05-16T11:57:46;14.00;99.90
19734;DHT22;10018;51.230;7.860;2023-05-16T12:00:20;14.10;99.90
19734;DHT22;10018;51.230;7.860;2023-05-16T12:02:53;14.20;99.90
19734;DHT22;10018;51.230;7.860;2023-05-16T12:05:19;13.90;99.90
19734;DHT22;10018;51.230;7.860;2023-05-16T12:07:49;13.90;99.90
19734;DHT22;10018;51.230;7.860;2023-05-16T12:10:16;13.70;99.90
19734;DHT22;10018;51.230;7.860;2023-05-16T12:12:45;13.60;99.90
19734;DHT22;10018;51.230;7.860;2023-05-16T12:15:11;13.60;99.90
19734;DHT22;10018;51.230;7.860;2023-05-16T12:17:38;13.80;99.90
19734;DHT22;10018;51.230;7.860;2023-05-16T12:20:05;14.10;99.90
19734;DHT22;10018;51.230;7.860;2023-05-16T12:22:32;14.30;99.90
19734;DHT22;10018;51.230;7.860;2023-05-16T12:24:58;14.40;99.90
19734;DHT22;10018;51.230;7.860;2023-05-16T12:27:25;14.40;99.90
19734;DHT22;10018;51.230;7.860;2023-05-16T12:29:52;14.10;99.90
19734;DHT22;10018;51.230;7.860;2023-05-16T12:32:18;13.80;99.90
19734;DHT22;10018;51.230;7.860;2023-05-16T12:34:51;14.20;99.90
19734;DHT22;10018;51.230;7.860;2023-05-16T12:37:17;14.30;99.90
19734;DHT22;10018;51.230;7.860;2023-05-16T12:39:43;14.10;99.90
19734;DHT22;10018;51.230;7.860;2023-05-16T12:42:13;14.00;99.90
19734;DHT22;10018;51.230;7.860;2023-05-16T12:44:44;13.70;99.90
19734;DHT22;10018;51.230;7.860;2023-05-16T12:47:11;13.70;99.90
19734;DHT22;10018;51.230;7.860;2023-05-16T12:49:44;13.70;99.90
19734;DHT22;10018;51.230;7.860;2023-05-16T12:52:16;13.70;99.90
19734;DHT22;10018;51.230;7.860;2023-05-16T12:54:43;13.70;99.90
19734;DHT22;10018;51.230;7.860;2023-05-16T12:57:11;13.50;99.90
19734;DHT22;10018;51.230;7.860;2023-05-16T12:59:37;13.30;99.90
19734;DHT22;10018;51.230;7.860;2023-05-16T13:02:02;13.20;99.90
19734;DHT22;10018;51.230;7.860;2023-05-16T13:04:29;13.10;99.90
19734;DHT22;10018;51.230;7.860;2023-05-16T13:06:54;13.00;99.90
19734;DHT22;10018;51.230;7.860;2023-05-16T13:09:20;13.00;99.90
19734;DHT22;10018;51.230;7.860;2023-05-16T13:11:46;13.00;99.90
19734;DHT22;10018;51.230;7.860;2023-05-16T13:14:11;13.10;99.90
19734;DHT22;10018;51.230;7.860;2023-05-16T13:16:37;13.10;99.90
19734;DHT22;10018;51.230;7.860;2023-05-16T13:19:03;13.10;99.90
19734;DHT22;10018;51.230;7.860;2023-05-16T13:21:29;13.20;99.90
19734;DHT22;10018;51.230;7.860;2023-05-16T13:23:59;13.20;99.90
19734;DHT22;10018;51.230;7.860;2023-05-16T13:26:24;13.60;99.90
19734;DHT22;10018;51.230;7.860;2023-05-16T13:28:50;14.00;99.90
19734;DHT22;10018;51.230;7.860;2023-05-16T13:31:18;14.30;99.90
19734;DHT22;10018;51.230;7.860;2023-05-16T13:33:46;14.40;99.90
19734;DHT22;10018;51.230;7.860;2023-05-16T13:36:12;14.40;99.90
19734;DHT22;10018;51.230;7.860;2023-05-16T13:38:37;14.50;99.90
19734;DHT22;10018;51.230;7.860;2023-05-16T13:41:03;14.80;99.90
19734;DHT22;10018;51.230;7.860;2023-05-16T13:43:29;15.00;99.90
19734;DHT22;10018;51.230;7.860;2023-05-16T13:45:54;14.90;99.90
19734;DHT22;10018;51.230;7.860;2023-05-16T13:48:20;14.70;99.90
19734;DHT22;10018;51.230;7.860;2023-05-16T13:50:46;14.60;99.90
19734;DHT22;10018;51.230;7.860;2023-05-16T13:53:11;14.60;99.90
19734;DHT22;10018;51.230;7.860;2023-05-16T13:55:37;14.50;99.90
19734;DHT22;10018;51.230;7.860;2023-05-16T13:58:02;14.80;99.90
19734;DHT22;10018;51.230;7.860;2023-05-16T14:00:28;15.10;99.90
19734;DHT22;10018;51.230;7.860;2023-05-16T14:02:54;15.30;99.90
19734;DHT22;10018;51.230;7.860;2023-05-16T14:05:21;15.10;99.90
19734;DHT22;10018;51.230;7.860;2023-05-16T14:07:46;15.00;99.90
19734;DHT22;10018;51.230;7.860;2023-05-16T14:10:12;14.90;99.90
19734;DHT22;10018;51.230;7.860;2023-05-16T14:12:37;14.70;99.90
19734;DHT22;10018;51.230;7.860;2023-05-16T14:15:04;14.50;99.90
19734;DHT22;10018;51.230;7.860;2023-05-16T14:17:30;14.20;99.90
19734;DHT22;10018;51.230;7.860;2023-05-16T14:19:57;14.10;99.90
19734;DHT22;10018;51.230;7.860;2023-05-16T14:22:22;14.10;99.90
19734;DHT22;10018;51.230;7.860;2023-05-16T14:24:48;14.10;99.90
19734;DHT22;10018;51.230;7.860;2023-05-16T14:27:13;14.00;99.90
19734;DHT22;10018;51.230;7.860;2023-05-16T14:29:41;14.00;99.90
19734;DHT22;10018;51.230;7.860;2023-05-16T14:32:10;14.10;99.90
19734;DHT22;10018;51.230;7.860;2023-05-16T14:34:37;14.50;99.90
19734;DHT22;10018;51.230;7.860;2023-05-16T14:37:02;14.90;99.90
19734;DHT22;10018;51.230;7.860;2023-05-16T14:39:28;15.10;99.90
19734;DHT22;10018;51.230;7.860;2023-05-16T14:41:53;15.10;99.90
19734;DHT22;10018;51.230;7.860;2023-05-16T14:44:19;15.00;99.90
19734;DHT22;10018;51.230;7.860;2023-05-16T14:46:46;15.10;99.90
19734;DHT22;10018;51.230;7.860;2023-05-16T14:49:12;14.80;99.90
19734;DHT22;10018;51.230;7.860;2023-05-16T14:51:37;14.60;99.90
19734;DHT22;10018;51.230;7.860;2023-05-16T14:54:03;14.50;99.90
19734;DHT22;10018;51.230;7.860;2023-05-16T14:56:29;14.30;99.90
19734;DHT22;10018;51.230;7.860;2023-05-16T14:58:56;14.10;99.90
19734;DHT22;10018;51.230;7.860;2023-05-16T15:01:21;14.20;99.90
19734;DHT22;10018;51.230;7.860;2023-05-16T15:03:49;14.40;99.90
19734;DHT22;10018;51.230;7.860;2023-05-16T15:06:15;14.60;99.90
19734;DHT22;10018;51.230;7.860;2023-05-16T15:08:41;14.80;99.90
19734;DHT22;10018;51.230;7.860;2023-05-16T15:11:06;14.70;99.90
19734;DHT22;10018;51.230;7.860;2023-05-16T15:13:32;14.90;99.90
19734;DHT22;10018;51.230;7.860;2023-05-16T15:15:58;14.90;99.90
19734;DHT22;10018;51.230;7.860;2023-05-16T15:18:23;14.90;99.90
19734;DHT22;10018;51.230;7.860;2023-05-16T15:20:49;14.90;99.90
19734;DHT22;10018;51.230;7.860;2023-05-16T15:23:16;14.90;99.90
19734;DHT22;10018;51.230;7.860;2023-05-16T15:25:42;14.90;99.90
19734;DHT22;10018;51.230;7.860;2023-05-16T15:28:07;15.00;99.90
19734;DHT22;10018;51.230;7.860;2023-05-16T15:30:33;15.10;99.90
19734;DHT22;10018;51.230;7.860;2023-05-16T15:32:59;15.30;99.90
19734;DHT22;10018;51.230;7.860;2023-05-16T15:35:24;15.30;99.90
19734;DHT22;10018;51.230;7.860;2023-05-16T15:37:50;15.10;99.90
19734;DHT22;10018;51.230;7.860;2023-05-16T15:40:17;15.00;99.90
19734;DHT22;10018;51.230;7.860;2023-05-16T15:42:42;14.80;99.90
19734;DHT22;10018;51.230;7.860;2023-05-16T15:45:10;14.70;99.90
19734;DHT22;10018;51.230;7.860;2023-05-16T15:47:38;14.40;99.90